createdAt,value
2022-11-20T00:00:43.603Z,1.70
2022-11-20T00:03:13.235Z,3.87
2022-11-20T00:05:41.772Z,4.43
2022-11-20T00:08:10.104Z,2.20
2022-11-20T00:10:38.957Z,4.67
2022-11-20T00:13:07.274Z,2.67
2022-11-20T00:15:35.633Z,3.10
2022-11-20T00:18:04.053Z,4.00
2022-11-20T00:20:33.790Z,2.53
2022-11-20T00:23:02.056Z,2.17
2022-11-20T00:25:30.390Z,3.40
2022-11-20T00:27:58.721Z,2.07
2022-11-20T00:30:27.030Z,2.30
2022-11-20T00:32:55.420Z,2.97
2022-11-20T00:35:23.692Z,2.27
2022-11-20T00:37:53.359Z,3.00
2022-11-20T00:40:21.655Z,1.77
2022-11-20T00:42:50.005Z,3.53
2022-11-20T00:45:18.434Z,1.50
2022-11-20T00:47:46.827Z,2.47
2022-11-20T00:50:15.083Z,2.10
2022-11-20T00:52:43.663Z,3.30
2022-11-20T00:55:13.338Z,1.80
2022-11-20T00:57:41.632Z,4.17
2022-11-20T01:00:10.449Z,2.80
2022-11-20T01:02:38.781Z,2.37
2022-11-20T01:05:07.092Z,2.43
2022-11-20T01:07:35.347Z,3.77
2022-11-20T01:10:03.819Z,1.30
2022-11-20T01:12:33.409Z,2.77
2022-11-20T01:15:01.692Z,4.30
2022-11-20T01:17:29.983Z,2.60
2022-11-20T01:19:58.251Z,1.73
2022-11-20T01:22:26.526Z,2.77
2022-11-20T01:24:54.816Z,2.50
2022-11-20T01:27:23.075Z,1.73
2022-11-20T01:29:55.762Z,2.83
2022-11-20T01:32:28.145Z,2.10
2022-11-20T01:34:56.391Z,2.40
2022-11-20T01:37:24.750Z,1.60
2022-11-20T01:39:53.060Z,1.63
2022-11-20T01:42:38.755Z,2.03
2022-11-20T01:45:22.178Z,1.30
2022-11-20T01:47:51.856Z,2.17
2022-11-20T01:50:22.176Z,1.60
2022-11-20T01:52:51.170Z,1.10
2022-11-20T01:55:20.503Z,3.67
2022-11-20T01:57:48.828Z,1.80
2022-11-20T02:00:18.336Z,1.90
2022-11-20T02:02:47.871Z,2.27
2022-11-20T02:05:19.874Z,1.17
2022-11-20T02:07:48.249Z,2.23
2022-11-20T02:10:16.614Z,1.77
2022-11-20T02:13:02.476Z,1.73
2022-11-20T02:15:30.801Z,1.00
2022-11-20T02:17:59.095Z,2.47
2022-11-20T02:20:28.825Z,1.03
2022-11-20T02:22:57.730Z,1.23
2022-11-20T02:25:27.381Z,1.73
2022-11-20T02:27:55.701Z,2.37
2022-11-20T02:30:23.965Z,0.83
2022-11-20T02:32:52.241Z,1.80
2022-11-20T02:35:38.951Z,2.47
2022-11-20T02:38:07.261Z,1.20
2022-11-20T02:40:36.950Z,2.23
2022-11-20T02:43:05.266Z,1.27
2022-11-20T02:45:33.600Z,1.13
2022-11-20T02:48:02.000Z,1.27
2022-11-20T02:50:30.267Z,1.43
2022-11-20T02:52:58.510Z,1.63
2022-11-20T02:55:26.846Z,1.10
2022-11-20T02:57:56.841Z,1.00
2022-11-20T03:00:25.111Z,1.30
2022-11-20T03:02:53.429Z,1.73
2022-11-20T03:05:21.680Z,1.10
2022-11-20T03:07:50.035Z,2.10
2022-11-20T03:10:18.509Z,3.37
2022-11-20T03:12:47.199Z,1.43
2022-11-20T03:15:16.840Z,1.43
2022-11-20T03:17:45.256Z,1.77
2022-11-20T03:20:13.797Z,1.83
2022-11-20T03:22:42.108Z,4.43
2022-11-20T03:25:10.624Z,1.43
2022-11-20T03:27:38.993Z,1.27
2022-11-20T03:30:07.986Z,1.80
2022-11-20T03:32:37.675Z,1.13
2022-11-20T03:35:06.168Z,1.13
2022-11-20T03:37:34.422Z,0.90
2022-11-20T03:40:02.745Z,1.40
2022-11-20T03:42:49.337Z,2.47
2022-11-20T03:45:18.144Z,1.23
2022-11-20T03:47:47.856Z,2.17
2022-11-20T03:50:16.143Z,1.47
2022-11-20T03:52:44.565Z,1.43
2022-11-20T03:55:12.857Z,0.93
2022-11-20T03:57:41.139Z,1.63
2022-11-20T04:00:09.834Z,1.10
2022-11-20T04:02:38.078Z,1.80
2022-11-20T04:05:08.345Z,2.80
2022-11-20T04:07:37.367Z,1.50
2022-11-20T04:10:06.077Z,1.60
2022-11-20T04:12:35.137Z,1.87
2022-11-20T04:15:03.702Z,0.90
2022-11-20T04:17:31.972Z,2.73
2022-11-20T04:20:00.278Z,3.13
2022-11-20T04:22:29.987Z,2.43
2022-11-20T04:24:58.283Z,0.80
2022-11-20T04:27:26.558Z,1.53
2022-11-20T04:29:54.871Z,1.63
2022-11-20T04:32:23.142Z,1.33
2022-11-20T04:34:51.461Z,2.03
2022-11-20T04:37:19.722Z,1.20
2022-11-20T04:39:49.408Z,1.03
2022-11-20T04:42:33.065Z,4.20
2022-11-20T04:45:01.376Z,1.47
2022-11-20T04:47:29.658Z,3.10
2022-11-20T04:49:57.990Z,1.70
2022-11-20T04:52:26.348Z,2.33
2022-11-20T04:54:56.181Z,0.70
2022-11-20T04:57:24.506Z,1.17
2022-11-20T04:59:52.855Z,1.30
2022-11-20T05:02:21.400Z,1.87
2022-11-20T05:04:49.661Z,4.93
2022-11-20T05:07:17.964Z,7.73
2022-11-20T05:09:46.794Z,7.57
2022-11-20T05:12:16.482Z,5.67
2022-11-20T05:14:44.760Z,7.53
2022-11-20T05:17:13.549Z,8.57
2022-11-20T05:19:41.866Z,9.37
2022-11-20T05:22:10.159Z,7.30
2022-11-20T05:24:38.461Z,5.87
2022-11-20T05:27:06.755Z,8.67
2022-11-20T05:29:36.471Z,6.93
2022-11-20T05:32:06.587Z,6.27
2022-11-20T05:34:34.896Z,3.80
2022-11-20T05:37:03.227Z,6.63
2022-11-20T05:39:31.488Z,9.20
2022-11-20T05:42:13.652Z,4.87
2022-11-20T05:44:43.500Z,5.67
2022-11-20T05:47:11.782Z,3.97
2022-11-20T05:49:40.179Z,4.63
2022-11-20T05:52:08.500Z,4.77
2022-11-20T05:54:36.775Z,6.43
2022-11-20T05:57:05.113Z,6.03
2022-11-20T05:59:33.419Z,5.63
2022-11-20T06:02:03.103Z,4.47
2022-11-20T06:04:31.392Z,3.10
2022-11-20T06:06:59.730Z,5.60
2022-11-20T06:09:28.105Z,3.87
2022-11-20T06:11:56.372Z,4.40
2022-11-20T06:14:24.744Z,3.83
2022-11-20T06:16:53.034Z,3.40
2022-11-20T06:19:22.920Z,5.40
2022-11-20T06:21:51.491Z,3.40
2022-11-20T06:24:19.830Z,3.00
2022-11-20T06:26:48.126Z,6.60
2022-11-20T06:29:16.426Z,3.23
2022-11-20T06:31:44.704Z,2.20
2022-11-20T06:34:14.025Z,4.33
2022-11-20T06:36:43.743Z,2.40
2022-11-20T06:39:12.146Z,2.60
2022-11-20T06:41:40.462Z,1.60
2022-11-20T06:44:08.790Z,2.87
2022-11-20T06:46:37.115Z,2.77
2022-11-20T06:49:05.397Z,2.47
2022-11-20T06:51:33.728Z,3.23
2022-11-20T06:54:03.339Z,3.80
2022-11-20T06:56:31.660Z,3.00
2022-11-20T06:59:00.009Z,5.80
2022-11-20T07:01:28.325Z,5.10
2022-11-20T07:03:56.596Z,6.07
2022-11-20T07:06:25.100Z,7.27
2022-11-20T07:08:53.838Z,8.13
2022-11-20T07:11:23.559Z,5.87
2022-11-20T07:13:52.046Z,10.10
2022-11-20T07:16:20.353Z,7.10
2022-11-20T07:18:50.807Z,7.47
2022-11-20T07:21:19.471Z,8.13
2022-11-20T07:23:47.756Z,8.33
2022-11-20T07:26:16.071Z,5.30
2022-11-20T07:28:48.069Z,5.77
2022-11-20T07:31:19.456Z,7.07
2022-11-20T07:33:48.194Z,8.07
2022-11-20T07:36:16.529Z,7.87
2022-11-20T07:38:44.792Z,5.33
2022-11-20T07:41:13.205Z,5.80
2022-11-20T07:43:41.900Z,5.77
2022-11-20T07:46:11.658Z,4.37
2022-11-20T07:48:39.963Z,7.23
2022-11-20T07:51:08.355Z,5.93
2022-11-20T07:53:36.761Z,5.33
2022-11-20T07:56:05.316Z,6.73
2022-11-20T07:58:35.387Z,8.30
2022-11-20T08:01:06.951Z,7.23
2022-11-20T08:03:38.780Z,5.47
2022-11-20T08:06:07.492Z,6.47
2022-11-20T08:08:40.022Z,6.63
2022-11-20T08:11:28.764Z,4.90
2022-11-20T08:14:15.450Z,3.40
2022-11-20T08:16:43.859Z,4.27
2022-11-20T08:19:13.517Z,4.70
2022-11-20T08:21:41.761Z,6.10
2022-11-20T08:24:10.253Z,6.97
2022-11-20T08:26:38.954Z,5.07
2022-11-20T08:29:07.374Z,5.30
2022-11-20T08:31:35.733Z,6.50
2022-11-20T08:34:08.977Z,4.83
2022-11-20T08:36:39.247Z,8.10
2022-11-20T08:39:07.555Z,4.37
2022-11-20T08:41:37.701Z,7.60
2022-11-20T08:44:07.837Z,4.53
2022-11-20T08:46:37.372Z,4.77
2022-11-20T08:49:05.717Z,3.67
2022-11-20T08:51:34.093Z,6.57
2022-11-20T08:54:03.839Z,4.87
2022-11-20T08:56:32.189Z,5.90
2022-11-20T08:59:31.207Z,5.57
2022-11-20T09:01:49.607Z,8.07
2022-11-20T09:04:17.948Z,3.87
2022-11-20T09:06:46.478Z,3.23
2022-11-20T09:09:16.251Z,3.10
2022-11-20T09:11:44.671Z,5.03
2022-11-20T09:14:12.943Z,4.13
2022-11-20T09:16:41.283Z,2.53
2022-11-20T09:21:59.845Z,3.00
2022-11-20T09:24:29.994Z,3.10
2022-11-20T09:26:58.247Z,2.57
2022-11-20T09:29:26.509Z,4.70
2022-11-20T09:31:54.905Z,6.17
2022-11-20T09:34:23.174Z,3.50
2022-11-20T09:36:51.440Z,3.77
2022-11-20T09:39:20.226Z,3.07
2022-11-20T09:41:56.826Z,3.37
2022-11-20T09:44:29.387Z,3.60
2022-11-20T09:46:58.181Z,2.83
2022-11-20T09:49:32.046Z,5.17
2022-11-20T09:52:01.730Z,3.80
2022-11-20T09:54:30.844Z,8.17
2022-11-20T09:57:01.614Z,3.53
2022-11-20T09:59:35.384Z,4.60
2022-11-20T10:02:03.712Z,3.97
2022-11-20T10:04:36.707Z,3.60
2022-11-20T10:09:54.448Z,5.43
2022-11-20T10:12:25.595Z,6.93
2022-11-20T10:14:57.878Z,3.33
2022-11-20T10:17:30.626Z,3.87
2022-11-20T10:20:02.664Z,2.77
2022-11-20T10:22:34.424Z,4.43
2022-11-20T10:25:04.120Z,3.90
2022-11-20T10:27:38.132Z,2.73
2022-11-20T10:30:10.033Z,2.47
2022-11-20T10:32:39.872Z,3.67
2022-11-20T10:35:10.615Z,3.93
2022-11-20T10:37:38.953Z,2.10
2022-11-20T10:40:08.818Z,3.87
2022-11-20T10:42:40.706Z,2.33
2022-11-20T10:45:14.363Z,4.87
2022-11-20T10:47:42.662Z,3.50
2022-11-20T10:50:14.503Z,3.67
2022-11-20T10:52:46.012Z,4.17
2022-11-20T10:55:15.281Z,4.70
2022-11-20T10:57:50.016Z,2.87
2022-11-20T11:00:19.028Z,2.80
2022-11-20T11:02:48.918Z,3.50
2022-11-20T11:05:23.372Z,4.23
2022-11-20T11:07:52.019Z,3.13
2022-11-20T11:10:20.993Z,3.60
2022-11-20T11:12:50.754Z,3.07
2022-11-20T11:15:27.757Z,4.30
2022-11-20T11:17:56.264Z,3.67
2022-11-20T11:20:24.758Z,8.97
2022-11-20T11:22:53.571Z,4.50
2022-11-20T11:25:22.626Z,4.03
2022-11-20T11:27:52.462Z,7.47
2022-11-20T11:30:21.260Z,6.77
2022-11-20T11:32:49.822Z,4.47
2022-11-20T11:35:25.167Z,3.80
2022-11-20T11:37:55.305Z,6.23
2022-11-20T11:40:25.304Z,4.50
2022-11-20T11:42:56.965Z,3.03
2022-11-20T11:45:24.297Z,2.90
2022-11-20T11:47:52.563Z,5.77
2022-11-20T11:50:22.126Z,4.43
2022-11-20T11:52:56.359Z,5.57
2022-11-20T11:55:28.235Z,5.00
2022-11-20T11:57:59.033Z,4.37
2022-11-20T12:00:27.390Z,4.13
2022-11-20T12:02:57.655Z,6.77
2022-11-20T12:05:26.487Z,4.83
2022-11-20T12:07:55.909Z,4.43
2022-11-20T12:10:25.036Z,4.37
2022-11-20T12:12:54.780Z,7.97
2022-11-20T12:15:28.322Z,3.67
2022-11-20T12:17:56.640Z,6.50
2022-11-20T12:20:25.336Z,8.27
2022-11-20T12:22:56.211Z,6.27
2022-11-20T12:25:25.130Z,9.77
2022-11-20T12:28:12.534Z,8.80
2022-11-20T12:30:44.497Z,6.33
2022-11-20T12:33:20.082Z,6.83
2022-11-20T12:35:55.024Z,6.73
2022-11-20T12:38:37.683Z,5.47
2022-11-20T12:41:06.951Z,6.87
2022-11-20T12:43:53.844Z,10.70
2022-11-20T12:46:26.669Z,3.70
2022-11-20T12:48:56.113Z,5.13
2022-11-20T12:51:36.857Z,7.67
2022-11-20T12:54:21.144Z,5.30
2022-11-20T12:56:51.296Z,4.60
2022-11-20T12:59:26.584Z,5.87
2022-11-20T13:01:57.909Z,5.80
2022-11-20T13:04:44.845Z,5.13
2022-11-20T13:07:14.481Z,6.40
2022-11-20T13:09:43.556Z,5.83
2022-11-20T13:12:13.815Z,8.73
2022-11-20T13:14:43.226Z,5.30
2022-11-20T13:17:14.918Z,7.07
2022-11-20T13:19:43.296Z,6.13
2022-11-20T13:22:11.754Z,7.73
2022-11-20T13:24:40.174Z,6.67
2022-11-20T13:27:20.939Z,5.00
2022-11-20T13:29:49.707Z,4.93
2022-11-20T13:32:19.712Z,5.43
2022-11-20T13:34:54.566Z,4.07
2022-11-20T13:37:30.053Z,7.80
2022-11-20T13:40:07.970Z,4.70
2022-11-20T13:42:37.054Z,6.33
2022-11-20T13:45:05.730Z,8.23
2022-11-20T13:47:36.012Z,4.70
2022-11-20T13:50:05.550Z,5.77
2022-11-20T13:52:38.561Z,6.53
2022-11-20T13:55:10.276Z,5.47
2022-11-20T13:57:51.550Z,6.27
2022-11-20T14:00:20.259Z,5.23
2022-11-20T14:02:52.025Z,4.37
2022-11-20T14:05:21.630Z,5.93
2022-11-20T14:07:49.887Z,6.70
2022-11-20T14:10:31.131Z,5.17
2022-11-20T14:13:00.226Z,7.97
2022-11-20T14:15:29.324Z,5.87
2022-11-20T14:17:59.036Z,8.37
2022-11-20T14:20:27.630Z,7.90
2022-11-20T14:22:56.197Z,8.60
2022-11-20T14:25:27.807Z,8.40
2022-11-20T14:27:56.545Z,8.10
2022-11-20T14:30:25.468Z,8.80
2022-11-20T14:32:54.178Z,7.23
2022-11-20T14:35:25.094Z,5.73
2022-11-20T14:37:53.409Z,8.93
2022-11-20T14:40:25.595Z,9.40
2022-11-20T14:42:53.995Z,8.83
2022-11-20T14:45:22.345Z,8.57
2022-11-20T14:47:50.889Z,5.70
2022-11-20T14:50:20.917Z,7.97
2022-11-20T14:52:57.614Z,5.53
2022-11-20T14:55:29.153Z,4.77
2022-11-20T14:57:58.139Z,5.43
2022-11-20T15:00:26.741Z,4.60
2022-11-20T15:02:55.116Z,5.73
2022-11-20T15:05:24.280Z,6.63
2022-11-20T15:07:52.977Z,5.10
2022-11-20T15:10:26.216Z,7.83
2022-11-20T15:12:54.870Z,7.20
2022-11-20T15:15:24.053Z,6.27
2022-11-20T15:17:52.582Z,6.00
2022-11-20T15:20:20.917Z,7.57
2022-11-20T15:22:49.212Z,8.10
2022-11-20T15:25:17.796Z,6.17
2022-11-20T15:27:47.704Z,6.87
2022-11-20T15:30:17.799Z,6.17
2022-11-20T15:32:46.944Z,7.33
2022-11-20T15:35:15.378Z,7.30
2022-11-20T15:37:43.734Z,8.43
2022-11-20T15:40:12.316Z,7.23
2022-11-20T15:43:00.687Z,11.53
2022-11-20T15:45:30.380Z,5.67
2022-11-20T15:47:58.690Z,4.90
2022-11-20T15:50:27.640Z,7.37
2022-11-20T15:52:55.944Z,5.27
2022-11-20T15:55:24.279Z,5.97
2022-11-20T15:57:52.665Z,6.23
2022-11-20T16:00:23.807Z,6.63
2022-11-20T16:02:53.830Z,6.83
2022-11-20T16:05:24.053Z,6.67
2022-11-20T16:07:54.013Z,5.47
2022-11-20T16:10:22.424Z,4.03
2022-11-20T16:13:08.213Z,5.10
2022-11-20T16:15:49.037Z,4.27
2022-11-20T16:18:19.530Z,5.00
2022-11-20T16:20:48.083Z,4.60
2022-11-20T16:23:16.462Z,5.37
2022-11-20T16:25:44.897Z,4.87
2022-11-20T16:28:18.451Z,4.40
2022-11-20T16:30:47.322Z,4.50
2022-11-20T16:33:16.051Z,3.30
2022-11-20T16:35:45.746Z,5.40
2022-11-20T16:38:14.198Z,5.33
2022-11-20T16:40:42.526Z,3.70
2022-11-20T16:43:11.715Z,5.50
2022-11-20T16:45:43.695Z,4.87
2022-11-20T16:48:15.533Z,4.57
2022-11-20T16:50:54.596Z,4.07
2022-11-20T16:53:23.215Z,4.70
2022-11-20T16:55:51.563Z,3.77
2022-11-20T16:58:19.871Z,4.63
2022-11-20T17:00:51.592Z,3.40
2022-11-20T17:03:21.180Z,6.73
2022-11-20T17:05:49.525Z,4.23
2022-11-20T17:08:19.199Z,3.80
2022-11-20T17:10:47.549Z,5.43
2022-11-20T17:13:15.866Z,4.77
2022-11-20T17:15:44.207Z,4.70
2022-11-20T17:18:13.011Z,2.33
2022-11-20T17:20:41.318Z,4.07
2022-11-20T17:23:09.675Z,3.87
2022-11-20T17:25:39.426Z,4.40
2022-11-20T17:28:07.775Z,4.27
2022-11-20T17:30:36.121Z,2.33
2022-11-20T17:33:04.411Z,2.57
2022-11-20T17:35:33.139Z,5.47
2022-11-20T17:38:01.578Z,5.50
2022-11-20T17:40:30.237Z,7.33
2022-11-20T17:42:59.861Z,9.60
2022-11-20T17:45:28.333Z,8.20
2022-11-20T17:47:56.637Z,7.73
2022-11-20T17:50:24.938Z,6.37
2022-11-20T17:52:53.391Z,8.03
2022-11-20T17:55:21.698Z,8.17
2022-11-20T17:57:57.261Z,11.63
2022-11-20T18:00:27.305Z,8.83
2022-11-20T18:02:55.586Z,11.10
2022-11-20T18:05:23.998Z,9.73
2022-11-20T18:07:54.548Z,7.30
2022-11-20T18:10:23.060Z,9.30
2022-11-20T18:12:53.045Z,11.63
2022-11-20T18:15:21.358Z,10.27
2022-11-20T18:17:51.298Z,8.80
2022-11-20T18:20:39.666Z,10.43
2022-11-20T18:23:08.426Z,9.50
2022-11-20T18:25:36.798Z,10.13
2022-11-20T18:28:05.165Z,12.43
2022-11-20T18:30:33.535Z,10.87
2022-11-20T18:33:03.188Z,11.70
2022-11-20T18:35:31.487Z,17.00
2022-11-20T18:37:59.892Z,15.07
2022-11-20T18:40:28.505Z,13.80
2022-11-20T18:43:14.730Z,13.77
2022-11-20T18:45:43.156Z,14.50
2022-11-20T18:48:12.895Z,14.17
2022-11-20T18:50:41.257Z,18.00
2022-11-20T18:53:09.600Z,19.07
2022-11-20T18:55:37.889Z,17.90
2022-11-20T18:58:06.194Z,14.77
2022-11-20T19:00:34.533Z,16.50
2022-11-20T19:03:02.869Z,17.67
2022-11-20T19:05:32.659Z,18.30
2022-11-20T19:08:01.039Z,17.20
2022-11-20T19:10:29.401Z,14.63
2022-11-20T19:12:58.590Z,16.97
2022-11-20T19:15:26.918Z,16.57
2022-11-20T19:17:56.911Z,13.80
2022-11-20T19:20:26.136Z,14.40
2022-11-20T19:22:56.734Z,14.57
2022-11-20T19:25:25.193Z,12.40
2022-11-20T19:27:53.719Z,15.20
2022-11-20T19:30:22.094Z,14.13
2022-11-20T19:32:50.408Z,17.27
2022-11-20T19:35:19.042Z,12.87
2022-11-20T19:37:47.405Z,10.23
2022-11-20T19:40:17.337Z,16.27
2022-11-20T19:42:45.723Z,11.57
2022-11-20T19:45:14.051Z,11.30
2022-11-20T19:50:30.927Z,9.47
2022-11-20T19:52:59.291Z,11.53
2022-11-20T19:55:28.993Z,10.07
2022-11-20T19:57:57.546Z,14.73
2022-11-20T20:00:31.291Z,13.37
2022-11-20T20:03:01.204Z,9.90
2022-11-20T20:05:29.626Z,13.30
2022-11-20T20:07:57.928Z,15.83
2022-11-20T20:10:28.947Z,14.47
2022-11-20T20:12:57.289Z,18.90
2022-11-20T20:15:25.636Z,17.00
2022-11-20T20:17:54.147Z,14.73
2022-11-20T20:20:22.459Z,17.80
2022-11-20T20:22:50.794Z,18.53
2022-11-20T20:25:19.356Z,19.43
2022-11-20T20:27:49.090Z,21.60
2022-11-20T20:30:17.452Z,16.67
2022-11-20T20:32:45.838Z,19.70
2022-11-20T20:35:14.161Z,15.10
2022-11-20T20:37:42.503Z,15.97
2022-11-20T20:40:15.169Z,19.13
2022-11-20T20:42:43.748Z,15.47
2022-11-20T20:45:13.814Z,14.60
2022-11-20T20:47:42.494Z,15.30
2022-11-20T20:50:11.843Z,13.80
2022-11-20T20:52:40.284Z,14.17
2022-11-20T20:55:08.794Z,20.87
2022-11-20T20:57:37.125Z,11.77
2022-11-20T21:00:05.972Z,15.63
2022-11-20T21:02:35.669Z,13.03
2022-11-20T21:05:04.229Z,12.67
2022-11-20T21:07:32.693Z,16.83
2022-11-20T21:10:01.063Z,10.63
2022-11-20T21:12:29.389Z,14.20
2022-11-20T21:14:57.822Z,15.37
2022-11-20T21:17:26.159Z,12.67
2022-11-20T21:19:55.818Z,11.73
2022-11-20T21:22:23.373Z,12.77
2022-11-20T21:24:51.786Z,15.30
2022-11-20T21:27:20.128Z,13.50
2022-11-20T21:29:48.778Z,13.83
2022-11-20T21:32:17.107Z,25.67
2022-11-20T21:34:45.453Z,95.77
2022-11-20T21:37:15.346Z,135.80
2022-11-20T21:39:50.758Z,177.07
2022-11-20T21:42:19.371Z,164.30
2022-11-20T21:44:47.902Z,160.73
2022-11-20T21:47:16.176Z,142.80
2022-11-20T21:49:44.801Z,117.30
2022-11-20T21:52:13.449Z,113.83
2022-11-20T21:54:43.212Z,103.83
2022-11-20T21:57:11.664Z,103.43
2022-11-20T21:59:39.985Z,93.40
2022-11-20T22:02:09.036Z,82.93
2022-11-20T22:04:37.489Z,80.43
2022-11-20T22:07:07.148Z,76.50
2022-11-20T22:09:35.512Z,66.60
2022-11-20T22:12:05.562Z,82.77
2022-11-20T22:14:32.922Z,83.73
2022-11-20T22:17:01.225Z,68.43
2022-11-20T22:19:29.558Z,70.33
2022-11-20T22:21:57.884Z,62.13
2022-11-20T22:24:26.496Z,66.40
2022-11-20T22:26:56.013Z,72.53
2022-11-20T22:29:26.075Z,73.83
2022-11-20T22:31:54.671Z,62.90
2022-11-20T22:34:23.366Z,64.87
2022-11-20T22:36:51.959Z,65.47
2022-11-20T22:39:22.785Z,48.87
2022-11-20T22:41:51.089Z,50.63
2022-11-20T22:44:19.453Z,50.17
2022-11-20T22:46:49.196Z,53.27
2022-11-20T22:49:17.601Z,46.03
2022-11-20T22:51:45.905Z,48.23
2022-11-20T22:54:14.239Z,41.00
2022-11-20T22:56:42.764Z,47.97
2022-11-20T22:59:11.374Z,44.13
2022-11-20T23:01:39.760Z,50.87
2022-11-20T23:04:11.236Z,47.97
2022-11-20T23:06:39.570Z,44.40
2022-11-20T23:09:08.127Z,42.80
2022-11-20T23:11:36.587Z,41.07
2022-11-20T23:14:05.404Z,41.80
2022-11-20T23:16:33.685Z,42.17
2022-11-20T23:19:02.750Z,40.30
2022-11-20T23:21:32.440Z,40.03
2022-11-20T23:24:00.941Z,35.50
2022-11-20T23:26:29.877Z,41.10
2022-11-20T23:28:58.710Z,34.87
2022-11-20T23:31:27.195Z,32.73
2022-11-20T23:33:55.625Z,43.13
2022-11-20T23:36:23.940Z,34.73
2022-11-20T23:38:53.615Z,30.57
2022-11-20T23:41:21.927Z,36.43
2022-11-20T23:43:50.317Z,35.80
2022-11-20T23:46:18.649Z,32.17
2022-11-20T23:48:46.975Z,28.03
2022-11-20T23:51:15.362Z,24.50
2022-11-20T23:53:43.679Z,24.67
2022-11-20T23:56:14.444Z,31.60
2022-11-20T23:58:42.975Z,29.13
